Time;durP1;ratioP1;P1;durP2;ratioP2;P2;SDS_P1;SDS_P2;PMS_P1;PMS_P2;Temp;Humidity;BMP_temperature;BMP_pressure;BME280_temperature;BME280_humidity;BME280_pressure;Samples;Min_cycle;Max_cycle;Signal;HPM_P1;HPM_P2
2023/04/30 00:09:47;;;;;;;58.40;36.85;;;8.00;99.90;;;;;;25969314;22;20004;-51
2023/04/30 00:19:49;;;;;;;52.58;33.83;;;8.00;99.90;;;;;;25968670;22;20427;-53
2023/04/30 00:29:51;;;;;;;53.15;33.05;;;8.10;99.90;;;;;;25968100;22;20373;-53
2023/04/30 00:39:52;;;;;;;54.63;36.05;;;7.60;99.90;;;;;;25968091;22;20019;-50
2023/04/30 00:49:54;;;;;;;53.70;35.15;;;7.50;99.90;;;;;;25940352;22;20061;-53
2023/04/30 00:59:56;;;;;;;33.05;23.25;;;8.40;99.90;;;;;;25966776;22;20003;-60
2023/04/30 01:09:58;;;;;;;35.08;23.30;;;8.60;99.90;;;;;;25966617;22;20007;-51
2023/04/30 01:20:00;;;;;;;45.33;30.90;;;8.60;99.90;;;;;;25966121;22;20022;-59
2023/04/30 01:30:03;;;;;;;41.13;28.75;;;8.40;99.90;;;;;;25938412;22;20003;-53
2023/04/30 01:40:26;;;;;;;22.17;15.20;;;8.10;99.90;;;;;;25937731;22;20488;-59
2023/04/30 01:51:02;;;;;;;22.75;15.75;;;7.90;99.90;;;;;;25979994;22;20007;-58
2023/04/30 02:01:04;;;;;;;31.95;21.23;;;7.70;99.90;;;;;;26007326;22;20009;-59
2023/04/30 02:11:05;;;;;;;32.47;21.35;;;7.40;99.90;;;;;;25937462;22;20187;-59
2023/04/30 02:21:07;;;;;;;35.38;23.38;;;7.40;99.90;;;;;;25964263;22;20080;-59
2023/04/30 02:31:10;;;;;;;23.13;16.08;;;8.00;99.90;;;;;;25964065;22;20007;-49
2023/04/30 02:41:12;;;;;;;21.70;15.77;;;8.30;99.90;;;;;;25963842;22;20007;-50
2023/04/30 02:51:14;;;;;;;20.20;15.07;;;8.20;99.90;;;;;;25936829;22;20378;-60
2023/04/30 03:01:16;;;;;;;20.05;14.73;;;8.30;99.90;;;;;;25968556;22;20007;-59
2023/04/30 03:11:18;;;;;;;18.80;13.27;;;8.20;99.90;;;;;;25944144;22;20014;-59
2023/04/30 03:21:19;;;;;;;18.65;12.25;;;8.20;99.90;;;;;;25943732;22;20012;-50
2023/04/30 03:31:21;;;;;;;14.80;10.95;;;8.30;99.90;;;;;;25970396;22;20004;-49
2023/04/30 03:41:23;;;;;;;15.07;10.98;;;8.40;99.90;;;;;;25969736;22;20385;-51
2023/04/30 03:51:25;;;;;;;14.60;10.60;;;8.20;99.90;;;;;;25970023;22;20004;-49
2023/04/30 04:01:28;;;;;;;13.20;9.27;;;7.90;99.90;;;;;;25942417;22;20015;-59
2023/04/30 04:11:29;;;;;;;13.73;9.57;;;7.90;99.90;;;;;;25941795;22;20004;-58
2023/04/30 04:21:32;;;;;;;14.82;9.85;;;7.90;99.90;;;;;;25941495;22;20010;-52
2023/04/30 04:31:35;;;;;;;12.50;8.65;;;8.10;99.90;;;;;;25941339;22;20027;-52
2023/04/30 04:41:37;;;;;;;11.15;8.32;;;8.30;99.90;;;;;;25941651;22;20034;-52
2023/04/30 04:51:39;;;;;;;9.18;7.18;;;8.30;99.90;;;;;;25940468;22;20340;-52
2023/04/30 05:01:40;;;;;;;12.00;9.18;;;8.50;99.90;;;;;;25966668;22;20004;-48
2023/04/30 05:11:43;;;;;;;10.77;7.53;;;9.00;99.90;;;;;;25966163;22;20069;-61
2023/04/30 05:21:45;;;;;;;10.63;7.65;;;9.70;99.90;;;;;;25965185;22;20004;-52
2023/04/30 05:31:47;;;;;;;12.55;7.60;;;10.40;99.90;;;;;;25965824;22;20057;-53
2023/04/30 05:41:49;;;;;;;7.78;6.25;;;10.70;99.90;;;;;;25937857;22;20019;-49
2023/04/30 05:51:51;;;;;;;9.30;7.40;;;10.80;99.90;;;;;;25938255;22;20065;-53
2023/04/30 06:01:52;;;;;;;10.07;7.20;;;10.90;99.90;;;;;;25964265;22;20006;-60
2023/04/30 06:11:55;;;;;;;9.45;7.22;;;10.90;99.90;;;;;;25963804;22;20004;-59
2023/04/30 06:21:56;;;;;;;10.95;7.85;;;11.00;99.90;;;;;;25964194;22;20011;-49
2023/04/30 06:31:59;;;;;;;11.18;7.95;;;11.00;99.90;;;;;;25965495;22;20003;-51
2023/04/30 06:42:00;;;;;;;12.25;7.50;;;11.00;99.90;;;;;;25944150;22;20049;-60
2023/04/30 06:52:04;;;;;;;11.40;8.20;;;11.00;99.90;;;;;;25972095;22;20449;-60
2023/04/30 07:02:06;;;;;;;10.95;8.23;;;11.00;99.90;;;;;;25971500;22;20431;-60
2023/04/30 07:12:10;;;;;;;11.02;8.90;;;11.10;99.90;;;;;;25971330;22;20377;-60
2023/04/30 07:22:12;;;;;;;10.63;7.68;;;11.20;99.90;;;;;;25970721;22;20007;-61
2023/04/30 07:32:15;;;;;;;10.85;8.00;;;11.70;99.90;;;;;;25972141;22;20361;-52
2023/04/30 07:42:17;;;;;;;11.38;8.60;;;12.50;99.90;;;;;;25969233;22;20089;-60
2023/04/30 07:52:18;;;;;;;11.73;8.25;;;12.50;99.90;;;;;;25969876;22;19999;-48
2023/04/30 08:02:20;;;;;;;12.27;8.25;;;12.60;99.90;;;;;;25969114;22;20280;-61
2023/04/30 08:12:22;;;;;;;12.82;10.23;;;13.60;99.90;;;;;;25968970;22;20000;-47
2023/04/30 08:22:23;;;;;;;15.77;10.60;;;13.70;99.90;;;;;;25941093;22;20039;-47
2023/04/30 08:32:26;;;;;;;15.73;11.75;;;13.70;99.90;;;;;;25938414;22;20007;-47
2023/04/30 08:42:34;;;;;;;16.30;10.63;;;13.00;99.90;;;;;;25969299;22;20157;-53
2023/04/30 08:52:37;;;;;;;10.82;8.95;;;12.70;99.90;;;;;;26010144;22;20004;-48
2023/04/30 09:02:43;;;;;;;12.60;9.10;;;12.90;99.90;;;;;;25966501;22;20004;-61
2023/04/30 09:13:07;;;;;;;13.68;9.65;;;13.10;99.90;;;;;;25967633;22;20022;-61
2023/04/30 09:23:10;;;;;;;13.30;10.23;;;13.20;99.90;;;;;;25966964;22;20443;-51
2023/04/30 09:33:12;;;;;;;9.55;8.23;;;13.90;99.90;;;;;;25966585;22;20497;-51
2023/04/30 09:43:14;;;;;;;11.88;7.28;;;14.20;99.90;;;;;;25965723;22;20447;-53
2023/04/30 09:53:18;;;;;;;6.82;5.55;;;13.70;99.90;;;;;;25966387;22;20381;-61
2023/04/30 10:03:22;;;;;;;4.70;4.10;;;13.60;99.90;;;;;;25964686;22;20333;-52
2023/04/30 10:13:27;;;;;;;3.47;2.50;;;13.70;99.90;;;;;;25964926;22;20080;-52
2023/04/30 10:23:29;;;;;;;4.43;2.10;;;13.20;99.90;;;;;;25965163;22;20431;-50
2023/04/30 10:33:59;;;;;;;2.20;1.83;;;13.20;99.90;;;;;;25937825;22;20387;-59
2023/04/30 10:44:01;;;;;;;3.47;2.43;;;13.10;99.90;;;;;;25986463;22;20386;-51
2023/04/30 10:54:03;;;;;;;2.75;2.45;;;13.20;99.90;;;;;;25964798;22;20004;-52
2023/04/30 11:04:09;;;;;;;2.83;2.20;;;13.70;99.90;;;;;;25964565;22;20504;-53
2023/04/30 11:14:12;;;;;;;2.67;1.50;;;14.00;99.90;;;;;;26006716;22;20077;-49
2023/04/30 11:24:13;;;;;;;1.02;0.60;;;15.80;99.90;;;;;;25970575;22;20003;-49
2023/04/30 11:34:16;;;;;;;0.88;0.70;;;16.70;99.90;;;;;;25971823;22;20000;-54
2023/04/30 11:44:25;;;;;;;1.30;1.00;;;16.60;99.90;;;;;;25971036;22;20426;-62
2023/04/30 11:54:35;;;;;;;1.27;0.80;;;17.60;99.90;;;;;;26012957;22;20015;-63
2023/04/30 12:04:36;;;;;;;1.13;0.40;;;18.80;99.90;;;;;;26011395;22;20014;-62
2023/04/30 12:14:41;;;;;;;0.73;0.60;;;19.40;98.40;;;;;;25970265;22;20452;-62
2023/04/30 12:24:43;;;;;;;0.50;0.30;;;18.70;99.10;;;;;;25969428;22;20007;-63
2023/04/30 12:34:45;;;;;;;0.80;0.63;;;19.40;99.60;;;;;;25969307;22;20053;-51
2023/04/30 12:44:47;;;;;;;0.45;0.40;;;20.30;95.40;;;;;;25969646;22;20015;-48
2023/04/30 12:54:48;;;;;;;2.42;0.50;;;19.70;96.40;;;;;;25968639;22;20500;-63
2023/04/30 13:04:52;;;;;;;1.33;0.50;;;19.20;95.50;;;;;;25966804;22;20007;-51
2023/04/30 13:14:54;;;;;;;4.78;0.50;;;18.40;97.00;;;;;;25940278;22;20030;-49
2023/04/30 13:24:55;;;;;;;0.60;0.40;;;17.40;99.40;;;;;;25967488;22;20327;-62
2023/04/30 13:34:57;;;;;;;0.40;0.30;;;17.70;98.40;;;;;;25939585;22;20011;-61
2023/04/30 13:44:59;;;;;;;0.75;0.40;;;17.30;95.70;;;;;;25968770;22;20512;-61
2023/04/30 13:55:04;;;;;;;0.35;0.30;;;16.70;99.90;;;;;;25966375;22;20014;-52
2023/04/30 14:05:06;;;;;;;0.20;0.20;;;16.10;99.90;;;;;;25964310;22;20435;-61
2023/04/30 14:15:09;;;;;;;0.50;0.40;;;15.20;99.90;;;;;;25965162;22;20088;-53
2023/04/30 14:25:11;;;;;;;0.47;0.30;;;14.50;99.90;;;;;;25938667;22;20031;-53
2023/04/30 14:35:13;;;;;;;0.80;0.43;;;13.90;99.90;;;;;;25965550;22;20496;-56
2023/04/30 14:45:15;;;;;;;1.35;0.40;;;13.60;99.90;;;;;;25964350;22;20026;-62
2023/04/30 14:55:17;;;;;;;0.98;0.38;;;13.60;99.90;;;;;;25968875;22;20025;-54
2023/04/30 15:05:19;;;;;;;0.70;0.50;;;13.80;99.90;;;;;;25946055;22;20007;-62
2023/04/30 15:15:28;;;;;;;1.20;0.50;;;14.10;99.90;;;;;;25971762;22;20057;-53
2023/04/30 15:25:30;;;;;;;0.77;0.50;;;14.00;99.90;;;;;;26014311;22;20007;-62
2023/04/30 15:35:32;;;;;;;1.67;0.40;;;13.70;99.90;;;;;;25971824;22;20006;-62
2023/04/30 15:45:34;;;;;;;1.48;0.55;;;13.60;99.90;;;;;;25971220;22;20016;-62
2023/04/30 15:55:36;;;;;;;0.50;0.40;;;13.30;99.90;;;;;;25971486;22;20030;-54
2023/04/30 16:05:39;;;;;;;0.47;0.40;;;12.80;99.90;;;;;;25970443;22;20015;-54
2023/04/30 16:15:41;;;;;;;1.13;0.70;;;12.50;99.90;;;;;;25969493;22;20007;-61
2023/04/30 16:25:43;;;;;;;1.15;0.65;;;12.30;99.90;;;;;;25969836;22;20381;-61
2023/04/30 16:35:45;;;;;;;3.30;1.15;;;12.10;99.90;;;;;;25968328;22;20014;-61
2023/04/30 16:45:46;;;;;;;2.28;1.10;;;11.80;99.90;;;;;;25968979;22;20012;-61
2023/04/30 16:55:50;;;;;;;2.33;1.25;;;11.60;99.90;;;;;;25941326;22;20065;-62
2023/04/30 17:05:52;;;;;;;1.02;0.70;;;11.00;99.90;;;;;;25968203;22;20324;-60
2023/04/30 17:15:58;;;;;;;1.88;1.15;;;10.60;99.90;;;;;;25940468;22;20327;-60
2023/04/30 17:26:00;;;;;;;1.10;0.82;;;10.60;99.90;;;;;;26010063;22;20008;-52
2023/04/30 17:36:02;;;;;;;1.33;1.00;;;10.60;99.90;;;;;;25967372;22;20004;-60
2023/04/30 17:46:03;;;;;;;3.08;1.20;;;10.60;99.90;;;;;;25966249;22;20011;-58
2023/04/30 17:56:06;;;;;;;3.20;1.23;;;10.50;99.90;;;;;;25966477;22;20003;-59
2023/04/30 18:06:08;;;;;;;1.15;0.80;;;10.50;99.90;;;;;;25938725;22;20011;-52
2023/04/30 18:16:10;;;;;;;2.03;1.20;;;10.50;99.90;;;;;;25966894;22;20504;-61
2023/04/30 18:26:14;;;;;;;2.17;1.05;;;10.40;99.90;;;;;;25967084;22;20007;-60
2023/04/30 18:36:16;;;;;;;2.22;0.95;;;10.30;99.90;;;;;;25978634;22;20011;-51
2023/04/30 18:46:19;;;;;;;1.67;1.27;;;10.30;99.90;;;;;;25978851;22;20018;-51
2023/04/30 18:56:21;;;;;;;1.92;0.90;;;10.10;99.90;;;;;;25979028;22;20000;-51
2023/04/30 19:06:24;;;;;;;1.20;0.80;;;9.90;99.90;;;;;;25978782;22;20331;-51
2023/04/30 19:16:25;;;;;;;1.85;1.10;;;9.80;99.90;;;;;;25977531;22;19999;-48
2023/04/30 19:26:27;;;;;;;1.67;1.10;;;9.80;99.90;;;;;;25978240;22;20011;-51
2023/04/30 19:36:29;;;;;;;2.33;1.00;;;9.70;99.90;;;;;;25977132;22;20077;-50
2023/04/30 19:46:31;;;;;;;1.42;0.80;;;9.60;99.90;;;;;;25970467;22;20015;-59
2023/04/30 19:56:33;;;;;;;2.20;1.00;;;9.70;99.90;;;;;;25969000;22;20019;-51
2023/04/30 20:06:35;;;;;;;1.75;0.80;;;9.80;99.90;;;;;;25943607;22;20011;-58
2023/04/30 20:16:36;;;;;;;1.45;0.90;;;9.70;99.90;;;;;;25917304;22;20061;-58
2023/04/30 20:26:39;;;;;;;1.00;0.75;;;9.80;99.90;;;;;;25969623;22;20061;-49
2023/04/30 20:36:40;;;;;;;2.20;0.60;;;9.70;99.90;;;;;;25969632;22;20014;-51
2023/04/30 20:46:42;;;;;;;1.77;0.98;;;9.80;99.90;;;;;;25968596;22;20020;-58
2023/04/30 20:56:45;;;;;;;0.98;0.73;;;9.80;99.90;;;;;;25940839;22;20355;-50
2023/04/30 21:06:47;;;;;;;0.80;0.70;;;9.80;99.90;;;;;;25940539;22;20008;-51
2023/04/30 21:16:50;;;;;;;3.55;0.85;;;9.80;99.90;;;;;;25967734;22;20502;-50
2023/04/30 21:26:53;;;;;;;1.52;0.70;;;9.90;99.90;;;;;;25967476;22;20430;-59
2023/04/30 21:36:54;;;;;;;1.30;0.80;;;9.90;99.90;;;;;;25966942;22;20008;-59
2023/04/30 21:46:56;;;;;;;1.70;0.70;;;9.90;99.90;;;;;;25966276;22;20335;-48
2023/04/30 21:56:59;;;;;;;0.93;0.73;;;9.90;99.90;;;;;;25966424;22;20008;-59
2023/04/30 22:07:01;;;;;;;0.90;0.52;;;9.80;99.90;;;;;;25965606;22;20062;-59
2023/04/30 22:17:03;;;;;;;1.40;0.93;;;9.70;99.90;;;;;;25965680;22;20008;-51
2023/04/30 22:27:05;;;;;;;1.88;0.73;;;9.60;99.90;;;;;;25965483;22;20004;-59
2023/04/30 22:37:09;;;;;;;4.18;0.80;;;9.50;99.90;;;;;;25965178;22;20004;-59
2023/04/30 22:47:11;;;;;;;0.90;0.60;;;9.50;99.90;;;;;;25964616;22;20320;-50
2023/04/30 22:57:13;;;;;;;0.88;0.60;;;9.40;99.90;;;;;;25965129;22;20007;-51
2023/04/30 23:07:15;;;;;;;0.55;0.45;;;9.30;99.90;;;;;;25964286;22;20431;-59
2023/04/30 23:17:16;;;;;;;1.88;0.65;;;9.30;99.90;;;;;;25970219;22;20000;-59
2023/04/30 23:27:18;;;;;;;0.70;0.50;;;9.40;99.90;;;;;;25972396;22;20020;-49
2023/04/30 23:37:20;;;;;;;0.40;0.40;;;9.30;99.90;;;;;;25971930;22;20012;-59
2023/04/30 23:47:21;;;;;;;1.88;0.70;;;9.20;99.90;;;;;;25971284;22;20011;-59
2023/04/30 23:57:24;;;;;;;0.95;0.65;;;9.30;99.90;;;;;;25971180;22;20369;-59
